METAR Data
IDs: Format: Raw Decoded Include TAF

Data at: 1226 UTC 26 Feb 2021

LTFJ 261150Z 21009KT CAVOK 12/06 Q1026 NOSIG RMK RWY24 10007KT